sensor_id;sensor_type;location;lat;lon;timestamp;P1;durP1;ratioP1;P2;durP2;ratioP2
42200;SDS011;27869;51.442;7.540;2024-02-26T00:02:05;3.90;;;1.00;;
42200;SDS011;27869;51.442;7.540;2024-02-26T00:04:34;3.97;;;1.38;;
42200;SDS011;27869;51.442;7.540;2024-02-26T00:07:01;5.25;;;1.50;;
42200;SDS011;27869;51.442;7.540;2024-02-26T00:09:28;4.15;;;1.45;;
42200;SDS011;27869;51.442;7.540;2024-02-26T00:11:55;6.00;;;1.50;;
42200;SDS011;27869;51.442;7.540;2024-02-26T00:14:23;4.78;;;1.30;;
42200;SDS011;27869;51.442;7.540;2024-02-26T00:16:49;3.63;;;1.38;;
42200;SDS011;27869;51.442;7.540;2024-02-26T00:19:16;3.97;;;1.48;;
42200;SDS011;27869;51.442;7.540;2024-02-26T00:21:45;6.43;;;1.40;;
42200;SDS011;27869;51.442;7.540;2024-02-26T00:24:11;6.68;;;1.58;;
42200;SDS011;27869;51.442;7.540;2024-02-26T00:26:38;4.97;;;1.40;;
42200;SDS011;27869;51.442;7.540;2024-02-26T00:29:05;5.70;;;1.38;;
42200;SDS011;27869;51.442;7.540;2024-02-26T00:31:32;5.35;;;1.35;;
42200;SDS011;27869;51.442;7.540;2024-02-26T00:33:59;5.25;;;1.30;;
42200;SDS011;27869;51.442;7.540;2024-02-26T00:36:26;5.45;;;1.50;;
42200;SDS011;27869;51.442;7.540;2024-02-26T00:38:54;4.57;;;1.50;;
42200;SDS011;27869;51.442;7.540;2024-02-26T00:41:22;4.97;;;1.42;;
42200;SDS011;27869;51.442;7.540;2024-02-26T00:43:48;6.03;;;1.02;;
42200;SDS011;27869;51.442;7.540;2024-02-26T00:46:15;4.05;;;1.23;;
42200;SDS011;27869;51.442;7.540;2024-02-26T00:48:42;3.08;;;1.10;;
42200;SDS011;27869;51.442;7.540;2024-02-26T00:51:09;5.00;;;1.27;;
42200;SDS011;27869;51.442;7.540;2024-02-26T00:53:36;3.92;;;1.25;;
42200;SDS011;27869;51.442;7.540;2024-02-26T00:56:05;4.50;;;1.30;;
42200;SDS011;27869;51.442;7.540;2024-02-26T00:58:32;3.67;;;1.17;;
42200;SDS011;27869;51.442;7.540;2024-02-26T01:00:59;3.25;;;1.30;;
42200;SDS011;27869;51.442;7.540;2024-02-26T01:03:25;4.32;;;1.20;;
42200;SDS011;27869;51.442;7.540;2024-02-26T01:05:52;4.68;;;1.15;;
42200;SDS011;27869;51.442;7.540;2024-02-26T01:08:19;5.80;;;1.30;;
42200;SDS011;27869;51.442;7.540;2024-02-26T01:10:46;3.72;;;1.30;;
42200;SDS011;27869;51.442;7.540;2024-02-26T01:13:14;2.80;;;1.20;;
42200;SDS011;27869;51.442;7.540;2024-02-26T01:15:41;4.60;;;1.10;;
42200;SDS011;27869;51.442;7.540;2024-02-26T01:18:09;3.15;;;1.13;;
42200;SDS011;27869;51.442;7.540;2024-02-26T01:20:35;2.80;;;1.10;;
42200;SDS011;27869;51.442;7.540;2024-02-26T01:23:02;3.40;;;1.20;;
42200;SDS011;27869;51.442;7.540;2024-02-26T01:25:30;5.28;;;1.50;;
42200;SDS011;27869;51.442;7.540;2024-02-26T01:27:57;4.80;;;1.23;;
42200;SDS011;27869;51.442;7.540;2024-02-26T01:30:25;5.03;;;1.60;;
42200;SDS011;27869;51.442;7.540;2024-02-26T01:32:52;5.93;;;1.40;;
42200;SDS011;27869;51.442;7.540;2024-02-26T01:35:18;4.45;;;1.40;;
42200;SDS011;27869;51.442;7.540;2024-02-26T01:37:45;5.25;;;1.30;;
42200;SDS011;27869;51.442;7.540;2024-02-26T01:40:12;5.07;;;1.30;;
42200;SDS011;27869;51.442;7.540;2024-02-26T01:42:43;4.43;;;1.20;;
42200;SDS011;27869;51.442;7.540;2024-02-26T01:45:11;5.03;;;1.50;;
42200;SDS011;27869;51.442;7.540;2024-02-26T01:47:48;4.88;;;1.40;;
42200;SDS011;27869;51.442;7.540;2024-02-26T01:50:16;4.97;;;1.58;;
42200;SDS011;27869;51.442;7.540;2024-02-26T01:52:46;4.43;;;1.30;;
42200;SDS011;27869;51.442;7.540;2024-02-26T01:55:13;6.22;;;1.60;;
42200;SDS011;27869;51.442;7.540;2024-02-26T01:57:40;2.88;;;1.20;;
42200;SDS011;27869;51.442;7.540;2024-02-26T02:00:10;5.50;;;1.55;;
42200;SDS011;27869;51.442;7.540;2024-02-26T02:02:37;5.65;;;1.45;;
42200;SDS011;27869;51.442;7.540;2024-02-26T02:05:08;5.15;;;1.55;;
42200;SDS011;27869;51.442;7.540;2024-02-26T02:07:36;7.03;;;1.48;;
42200;SDS011;27869;51.442;7.540;2024-02-26T02:10:03;3.90;;;1.30;;
42200;SDS011;27869;51.442;7.540;2024-02-26T02:12:32;4.90;;;1.50;;
42200;SDS011;27869;51.442;7.540;2024-02-26T02:14:59;5.10;;;1.70;;
42200;SDS011;27869;51.442;7.540;2024-02-26T02:17:26;5.55;;;1.75;;
42200;SDS011;27869;51.442;7.540;2024-02-26T02:19:54;4.60;;;1.30;;
42200;SDS011;27869;51.442;7.540;2024-02-26T02:22:22;5.53;;;1.65;;
42200;SDS011;27869;51.442;7.540;2024-02-26T02:24:50;5.38;;;1.40;;
42200;SDS011;27869;51.442;7.540;2024-02-26T02:27:18;4.80;;;1.52;;
42200;SDS011;27869;51.442;7.540;2024-02-26T02:29:46;4.57;;;1.38;;
42200;SDS011;27869;51.442;7.540;2024-02-26T02:32:14;7.90;;;1.60;;
42200;SDS011;27869;51.442;7.540;2024-02-26T02:34:42;6.38;;;1.60;;
42200;SDS011;27869;51.442;7.540;2024-02-26T02:37:09;4.35;;;1.42;;
42200;SDS011;27869;51.442;7.540;2024-02-26T02:39:37;4.90;;;1.33;;
42200;SDS011;27869;51.442;7.540;2024-02-26T02:42:04;4.53;;;1.30;;
42200;SDS011;27869;51.442;7.540;2024-02-26T02:44:31;4.00;;;1.13;;
42200;SDS011;27869;51.442;7.540;2024-02-26T02:46:58;4.75;;;1.40;;
42200;SDS011;27869;51.442;7.540;2024-02-26T02:49:25;4.80;;;1.50;;
42200;SDS011;27869;51.442;7.540;2024-02-26T02:51:52;5.50;;;1.52;;
42200;SDS011;27869;51.442;7.540;2024-02-26T02:54:19;5.60;;;1.50;;
42200;SDS011;27869;51.442;7.540;2024-02-26T02:56:47;6.35;;;1.83;;
42200;SDS011;27869;51.442;7.540;2024-02-26T02:59:14;4.45;;;1.30;;
42200;SDS011;27869;51.442;7.540;2024-02-26T03:01:41;6.55;;;1.58;;
42200;SDS011;27869;51.442;7.540;2024-02-26T03:04:08;6.10;;;1.80;;
42200;SDS011;27869;51.442;7.540;2024-02-26T03:06:35;4.80;;;1.40;;
42200;SDS011;27869;51.442;7.540;2024-02-26T03:09:02;8.10;;;1.77;;
42200;SDS011;27869;51.442;7.540;2024-02-26T03:11:29;6.13;;;1.77;;
42200;SDS011;27869;51.442;7.540;2024-02-26T03:13:57;6.97;;;1.73;;
42200;SDS011;27869;51.442;7.540;2024-02-26T03:16:24;5.35;;;1.67;;
42200;SDS011;27869;51.442;7.540;2024-02-26T03:18:51;5.22;;;1.60;;
42200;SDS011;27869;51.442;7.540;2024-02-26T03:21:18;6.65;;;1.98;;
42200;SDS011;27869;51.442;7.540;2024-02-26T03:23:45;6.82;;;1.70;;
42200;SDS011;27869;51.442;7.540;2024-02-26T03:26:12;6.45;;;1.30;;
42200;SDS011;27869;51.442;7.540;2024-02-26T03:28:39;5.85;;;1.63;;
42200;SDS011;27869;51.442;7.540;2024-02-26T03:31:08;5.53;;;1.63;;
42200;SDS011;27869;51.442;7.540;2024-02-26T03:33:35;5.80;;;1.65;;
42200;SDS011;27869;51.442;7.540;2024-02-26T03:36:02;7.05;;;1.77;;
42200;SDS011;27869;51.442;7.540;2024-02-26T03:38:29;5.75;;;1.90;;
42200;SDS011;27869;51.442;7.540;2024-02-26T03:40:57;5.03;;;1.77;;
42200;SDS011;27869;51.442;7.540;2024-02-26T03:43:23;5.20;;;1.60;;
42200;SDS011;27869;51.442;7.540;2024-02-26T03:45:50;6.18;;;1.70;;
42200;SDS011;27869;51.442;7.540;2024-02-26T03:48:19;6.95;;;1.70;;
42200;SDS011;27869;51.442;7.540;2024-02-26T03:50:46;7.88;;;1.92;;
42200;SDS011;27869;51.442;7.540;2024-02-26T03:53:12;6.40;;;1.75;;
42200;SDS011;27869;51.442;7.540;2024-02-26T03:55:39;4.00;;;1.50;;
42200;SDS011;27869;51.442;7.540;2024-02-26T03:58:07;7.25;;;1.88;;
42200;SDS011;27869;51.442;7.540;2024-02-26T04:00:34;5.25;;;1.80;;
42200;SDS011;27869;51.442;7.540;2024-02-26T04:03:01;8.75;;;1.70;;
42200;SDS011;27869;51.442;7.540;2024-02-26T04:05:29;8.52;;;1.70;;
42200;SDS011;27869;51.442;7.540;2024-02-26T04:07:56;5.40;;;1.60;;
42200;SDS011;27869;51.442;7.540;2024-02-26T04:10:23;7.90;;;1.58;;
42200;SDS011;27869;51.442;7.540;2024-02-26T04:12:50;9.43;;;1.70;;
42200;SDS011;27869;51.442;7.540;2024-02-26T04:15:17;4.97;;;1.45;;
42200;SDS011;27869;51.442;7.540;2024-02-26T04:17:47;4.72;;;1.55;;
42200;SDS011;27869;51.442;7.540;2024-02-26T04:20:14;5.65;;;1.85;;
42200;SDS011;27869;51.442;7.540;2024-02-26T04:22:43;4.43;;;1.60;;
42200;SDS011;27869;51.442;7.540;2024-02-26T04:25:11;5.43;;;1.85;;
42200;SDS011;27869;51.442;7.540;2024-02-26T04:27:38;6.30;;;1.83;;
42200;SDS011;27869;51.442;7.540;2024-02-26T04:30:05;5.07;;;1.50;;
42200;SDS011;27869;51.442;7.540;2024-02-26T04:32:33;5.40;;;1.75;;
42200;SDS011;27869;51.442;7.540;2024-02-26T04:34:59;6.10;;;1.75;;
42200;SDS011;27869;51.442;7.540;2024-02-26T04:37:26;5.10;;;1.48;;
42200;SDS011;27869;51.442;7.540;2024-02-26T04:39:57;5.07;;;1.70;;
42200;SDS011;27869;51.442;7.540;2024-02-26T04:42:24;4.65;;;1.50;;
42200;SDS011;27869;51.442;7.540;2024-02-26T04:44:51;6.20;;;1.67;;
42200;SDS011;27869;51.442;7.540;2024-02-26T04:47:18;4.43;;;1.70;;
42200;SDS011;27869;51.442;7.540;2024-02-26T04:49:47;6.82;;;1.75;;
42200;SDS011;27869;51.442;7.540;2024-02-26T04:52:14;6.03;;;1.88;;
42200;SDS011;27869;51.442;7.540;2024-02-26T04:54:40;5.05;;;1.58;;
42200;SDS011;27869;51.442;7.540;2024-02-26T04:57:09;8.38;;;1.80;;
42200;SDS011;27869;51.442;7.540;2024-02-26T04:59:35;4.78;;;1.58;;
42200;SDS011;27869;51.442;7.540;2024-02-26T05:02:02;5.95;;;1.50;;
42200;SDS011;27869;51.442;7.540;2024-02-26T05:04:29;5.95;;;1.77;;
42200;SDS011;27869;51.442;7.540;2024-02-26T05:06:56;4.32;;;1.60;;
42200;SDS011;27869;51.442;7.540;2024-02-26T05:09:23;6.25;;;1.75;;
42200;SDS011;27869;51.442;7.540;2024-02-26T05:11:50;4.90;;;1.55;;
42200;SDS011;27869;51.442;7.540;2024-02-26T05:14:18;7.20;;;1.88;;
42200;SDS011;27869;51.442;7.540;2024-02-26T05:16:45;5.55;;;1.73;;
42200;SDS011;27869;51.442;7.540;2024-02-26T05:19:12;4.55;;;1.50;;
42200;SDS011;27869;51.442;7.540;2024-02-26T05:21:39;4.07;;;1.50;;
42200;SDS011;27869;51.442;7.540;2024-02-26T05:24:07;7.70;;;1.60;;
42200;SDS011;27869;51.442;7.540;2024-02-26T05:26:34;4.43;;;1.55;;
42200;SDS011;27869;51.442;7.540;2024-02-26T05:29:01;5.20;;;1.63;;
42200;SDS011;27869;51.442;7.540;2024-02-26T05:31:30;4.65;;;1.60;;
42200;SDS011;27869;51.442;7.540;2024-02-26T05:33:56;6.35;;;2.00;;
42200;SDS011;27869;51.442;7.540;2024-02-26T05:36:23;5.35;;;1.67;;
42200;SDS011;27869;51.442;7.540;2024-02-26T05:38:51;7.47;;;2.20;;
42200;SDS011;27869;51.442;7.540;2024-02-26T05:41:17;6.15;;;1.80;;
42200;SDS011;27869;51.442;7.540;2024-02-26T05:43:48;5.03;;;1.50;;
42200;SDS011;27869;51.442;7.540;2024-02-26T05:46:16;5.68;;;1.80;;
42200;SDS011;27869;51.442;7.540;2024-02-26T05:48:44;6.63;;;1.90;;
42200;SDS011;27869;51.442;7.540;2024-02-26T05:51:13;6.78;;;1.80;;
42200;SDS011;27869;51.442;7.540;2024-02-26T05:53:40;6.82;;;2.05;;
42200;SDS011;27869;51.442;7.540;2024-02-26T05:56:07;5.90;;;1.80;;
42200;SDS011;27869;51.442;7.540;2024-02-26T05:58:34;6.18;;;1.83;;
42200;SDS011;27869;51.442;7.540;2024-02-26T06:01:00;6.47;;;1.92;;
42200;SDS011;27869;51.442;7.540;2024-02-26T06:03:27;5.75;;;1.60;;
42200;SDS011;27869;51.442;7.540;2024-02-26T06:05:56;6.78;;;1.77;;
42200;SDS011;27869;51.442;7.540;2024-02-26T06:08:22;7.95;;;1.83;;
42200;SDS011;27869;51.442;7.540;2024-02-26T06:10:49;5.30;;;1.60;;
42200;SDS011;27869;51.442;7.540;2024-02-26T06:13:16;6.43;;;1.90;;
42200;SDS011;27869;51.442;7.540;2024-02-26T06:15:43;7.70;;;1.92;;
42200;SDS011;27869;51.442;7.540;2024-02-26T06:18:10;7.07;;;1.77;;
42200;SDS011;27869;51.442;7.540;2024-02-26T06:20:37;4.63;;;1.50;;
42200;SDS011;27869;51.442;7.540;2024-02-26T06:23:05;5.35;;;1.75;;
42200;SDS011;27869;51.442;7.540;2024-02-26T06:25:33;8.57;;;1.85;;
42200;SDS011;27869;51.442;7.540;2024-02-26T06:28:00;6.43;;;1.63;;
42200;SDS011;27869;51.442;7.540;2024-02-26T06:30:27;6.30;;;1.73;;
42200;SDS011;27869;51.442;7.540;2024-02-26T06:32:53;6.55;;;1.60;;
42200;SDS011;27869;51.442;7.540;2024-02-26T06:35:20;5.82;;;1.70;;
42200;SDS011;27869;51.442;7.540;2024-02-26T06:37:47;6.57;;;1.90;;
42200;SDS011;27869;51.442;7.540;2024-02-26T06:40:17;5.80;;;1.70;;
42200;SDS011;27869;51.442;7.540;2024-02-26T06:42:44;5.03;;;1.52;;
42200;SDS011;27869;51.442;7.540;2024-02-26T06:45:11;6.03;;;1.70;;
42200;SDS011;27869;51.442;7.540;2024-02-26T06:47:37;5.38;;;1.80;;
42200;SDS011;27869;51.442;7.540;2024-02-26T06:50:04;7.38;;;2.13;;
42200;SDS011;27869;51.442;7.540;2024-02-26T06:52:31;6.97;;;1.70;;
42200;SDS011;27869;51.442;7.540;2024-02-26T06:54:58;5.82;;;1.70;;
42200;SDS011;27869;51.442;7.540;2024-02-26T06:57:26;4.38;;;1.75;;
42200;SDS011;27869;51.442;7.540;2024-02-26T06:59:53;5.78;;;1.80;;
42200;SDS011;27869;51.442;7.540;2024-02-26T07:02:20;7.78;;;1.92;;
42200;SDS011;27869;51.442;7.540;2024-02-26T07:04:47;4.00;;;1.35;;
42200;SDS011;27869;51.442;7.540;2024-02-26T07:07:14;6.78;;;1.83;;
42200;SDS011;27869;51.442;7.540;2024-02-26T07:09:43;5.68;;;1.90;;
42200;SDS011;27869;51.442;7.540;2024-02-26T07:12:10;5.30;;;1.70;;
42200;SDS011;27869;51.442;7.540;2024-02-26T07:14:38;8.18;;;1.90;;
42200;SDS011;27869;51.442;7.540;2024-02-26T07:17:05;6.63;;;1.90;;
42200;SDS011;27869;51.442;7.540;2024-02-26T07:19:31;6.20;;;1.90;;
42200;SDS011;27869;51.442;7.540;2024-02-26T07:21:58;7.70;;;2.10;;
42200;SDS011;27869;51.442;7.540;2024-02-26T07:24:26;7.78;;;2.05;;
42200;SDS011;27869;51.442;7.540;2024-02-26T07:26:53;7.88;;;2.00;;
42200;SDS011;27869;51.442;7.540;2024-02-26T07:29:20;7.00;;;1.98;;
42200;SDS011;27869;51.442;7.540;2024-02-26T07:31:48;6.97;;;2.10;;
42200;SDS011;27869;51.442;7.540;2024-02-26T07:34:15;6.63;;;2.00;;
42200;SDS011;27869;51.442;7.540;2024-02-26T07:36:43;7.18;;;2.20;;
42200;SDS011;27869;51.442;7.540;2024-02-26T07:39:10;8.23;;;2.50;;
42200;SDS011;27869;51.442;7.540;2024-02-26T07:41:36;8.13;;;2.30;;
42200;SDS011;27869;51.442;7.540;2024-02-26T07:44:04;6.75;;;2.05;;
42200;SDS011;27869;51.442;7.540;2024-02-26T07:46:31;6.90;;;2.17;;
42200;SDS011;27869;51.442;7.540;2024-02-26T07:48:59;7.72;;;2.25;;
42200;SDS011;27869;51.442;7.540;2024-02-26T07:51:26;9.57;;;2.80;;
42200;SDS011;27869;51.442;7.540;2024-02-26T07:53:52;9.43;;;2.72;;
42200;SDS011;27869;51.442;7.540;2024-02-26T07:56:19;9.18;;;2.50;;
42200;SDS011;27869;51.442;7.540;2024-02-26T07:58:46;8.25;;;2.70;;
42200;SDS011;27869;51.442;7.540;2024-02-26T08:01:13;9.57;;;2.30;;
42200;SDS011;27869;51.442;7.540;2024-02-26T08:03:40;7.03;;;2.00;;
42200;SDS011;27869;51.442;7.540;2024-02-26T08:06:09;7.28;;;2.15;;
42200;SDS011;27869;51.442;7.540;2024-02-26T08:08:35;9.30;;;2.38;;
42200;SDS011;27869;51.442;7.540;2024-02-26T08:11:03;7.00;;;2.20;;
42200;SDS011;27869;51.442;7.540;2024-02-26T08:13:30;6.70;;;2.15;;
42200;SDS011;27869;51.442;7.540;2024-02-26T08:15:57;6.80;;;2.00;;
42200;SDS011;27869;51.442;7.540;2024-02-26T08:18:24;8.48;;;2.30;;
42200;SDS011;27869;51.442;7.540;2024-02-26T08:20:51;7.03;;;2.03;;
42200;SDS011;27869;51.442;7.540;2024-02-26T08:23:19;10.25;;;2.35;;
42200;SDS011;27869;51.442;7.540;2024-02-26T08:25:46;8.38;;;2.13;;
42200;SDS011;27869;51.442;7.540;2024-02-26T08:28:13;7.20;;;2.10;;
42200;SDS011;27869;51.442;7.540;2024-02-26T08:30:42;8.68;;;2.63;;
42200;SDS011;27869;51.442;7.540;2024-02-26T08:33:09;5.68;;;1.80;;
42200;SDS011;27869;51.442;7.540;2024-02-26T08:35:36;7.75;;;2.05;;
42200;SDS011;27869;51.442;7.540;2024-02-26T08:38:03;6.88;;;2.20;;
42200;SDS011;27869;51.442;7.540;2024-02-26T08:40:32;9.50;;;3.25;;
42200;SDS011;27869;51.442;7.540;2024-02-26T08:42:59;9.02;;;2.20;;
42200;SDS011;27869;51.442;7.540;2024-02-26T08:45:26;7.50;;;2.53;;
42200;SDS011;27869;51.442;7.540;2024-02-26T08:47:52;7.68;;;2.13;;
42200;SDS011;27869;51.442;7.540;2024-02-26T08:50:19;8.57;;;2.25;;
42200;SDS011;27869;51.442;7.540;2024-02-26T08:52:46;7.50;;;2.17;;
42200;SDS011;27869;51.442;7.540;2024-02-26T08:55:15;8.23;;;2.38;;
42200;SDS011;27869;51.442;7.540;2024-02-26T08:57:44;8.80;;;2.53;;
42200;SDS011;27869;51.442;7.540;2024-02-26T09:00:11;7.50;;;2.33;;
42200;SDS011;27869;51.442;7.540;2024-02-26T09:02:40;9.02;;;2.13;;
42200;SDS011;27869;51.442;7.540;2024-02-26T09:05:08;6.88;;;2.10;;
42200;SDS011;27869;51.442;7.540;2024-02-26T09:07:36;8.32;;;2.25;;
42200;SDS011;27869;51.442;7.540;2024-02-26T09:10:03;7.55;;;2.15;;
42200;SDS011;27869;51.442;7.540;2024-02-26T09:12:30;7.05;;;2.10;;
42200;SDS011;27869;51.442;7.540;2024-02-26T09:14:59;6.50;;;2.13;;
42200;SDS011;27869;51.442;7.540;2024-02-26T09:17:26;6.07;;;2.00;;
42200;SDS011;27869;51.442;7.540;2024-02-26T09:19:52;6.18;;;1.90;;
42200;SDS011;27869;51.442;7.540;2024-02-26T09:22:19;8.02;;;2.30;;
42200;SDS011;27869;51.442;7.540;2024-02-26T09:24:46;7.43;;;2.03;;
42200;SDS011;27869;51.442;7.540;2024-02-26T09:27:14;7.90;;;2.58;;
42200;SDS011;27869;51.442;7.540;2024-02-26T09:29:42;8.32;;;2.28;;
42200;SDS011;27869;51.442;7.540;2024-02-26T09:32:10;7.60;;;2.33;;
42200;SDS011;27869;51.442;7.540;2024-02-26T09:34:39;8.18;;;2.60;;
42200;SDS011;27869;51.442;7.540;2024-02-26T09:37:06;6.65;;;2.13;;
42200;SDS011;27869;51.442;7.540;2024-02-26T09:39:33;9.35;;;2.40;;
42200;SDS011;27869;51.442;7.540;2024-02-26T09:42:00;6.78;;;2.05;;
42200;SDS011;27869;51.442;7.540;2024-02-26T09:46:58;8.90;;;2.40;;
42200;SDS011;27869;51.442;7.540;2024-02-26T09:49:27;7.68;;;2.42;;
42200;SDS011;27869;51.442;7.540;2024-02-26T09:51:54;8.35;;;2.53;;
42200;SDS011;27869;51.442;7.540;2024-02-26T09:54:23;10.57;;;2.80;;
42200;SDS011;27869;51.442;7.540;2024-02-26T09:56:51;8.65;;;2.60;;
42200;SDS011;27869;51.442;7.540;2024-02-26T09:59:22;10.88;;;2.80;;
42200;SDS011;27869;51.442;7.540;2024-02-26T10:01:49;11.25;;;2.88;;
42200;SDS011;27869;51.442;7.540;2024-02-26T10:04:17;9.63;;;2.83;;
42200;SDS011;27869;51.442;7.540;2024-02-26T10:06:47;11.18;;;3.20;;
42200;SDS011;27869;51.442;7.540;2024-02-26T10:09:14;10.35;;;3.00;;
42200;SDS011;27869;51.442;7.540;2024-02-26T10:11:42;10.18;;;2.75;;
42200;SDS011;27869;51.442;7.540;2024-02-26T10:14:10;12.80;;;3.50;;
42200;SDS011;27869;51.442;7.540;2024-02-26T10:16:37;11.23;;;3.40;;
42200;SDS011;27869;51.442;7.540;2024-02-26T10:19:04;13.32;;;4.15;;
42200;SDS011;27869;51.442;7.540;2024-02-26T10:21:31;12.48;;;4.10;;
42200;SDS011;27869;51.442;7.540;2024-02-26T10:23:59;13.55;;;3.75;;
42200;SDS011;27869;51.442;7.540;2024-02-26T10:26:26;9.75;;;3.00;;
42200;SDS011;27869;51.442;7.540;2024-02-26T10:28:52;9.45;;;3.00;;
42200;SDS011;27869;51.442;7.540;2024-02-26T10:31:25;10.43;;;3.38;;
42200;SDS011;27869;51.442;7.540;2024-02-26T10:33:55;10.40;;;3.33;;
42200;SDS011;27869;51.442;7.540;2024-02-26T10:36:22;11.15;;;3.17;;
42200;SDS011;27869;51.442;7.540;2024-02-26T10:38:49;8.38;;;2.80;;
42200;SDS011;27869;51.442;7.540;2024-02-26T10:41:17;10.25;;;2.97;;
42200;SDS011;27869;51.442;7.540;2024-02-26T10:43:44;9.70;;;3.13;;
42200;SDS011;27869;51.442;7.540;2024-02-26T10:46:10;9.52;;;3.22;;
42200;SDS011;27869;51.442;7.540;2024-02-26T10:48:37;10.50;;;3.20;;
42200;SDS011;27869;51.442;7.540;2024-02-26T10:51:04;11.40;;;3.42;;
42200;SDS011;27869;51.442;7.540;2024-02-26T10:53:31;12.60;;;3.80;;
42200;SDS011;27869;51.442;7.540;2024-02-26T10:56:02;10.73;;;3.47;;
42200;SDS011;27869;51.442;7.540;2024-02-26T10:58:32;12.23;;;4.05;;
42200;SDS011;27869;51.442;7.540;2024-02-26T11:01:00;11.05;;;3.83;;
42200;SDS011;27869;51.442;7.540;2024-02-26T11:03:27;11.50;;;3.83;;
42200;SDS011;27869;51.442;7.540;2024-02-26T11:05:57;12.48;;;4.63;;
42200;SDS011;27869;51.442;7.540;2024-02-26T11:08:25;11.27;;;3.67;;
42200;SDS011;27869;51.442;7.540;2024-02-26T11:10:53;13.00;;;4.35;;
42200;SDS011;27869;51.442;7.540;2024-02-26T11:13:21;12.07;;;4.25;;
42200;SDS011;27869;51.442;7.540;2024-02-26T11:15:52;11.35;;;4.22;;
42200;SDS011;27869;51.442;7.540;2024-02-26T11:20:48;11.93;;;4.35;;
42200;SDS011;27869;51.442;7.540;2024-02-26T11:23:16;12.73;;;4.22;;
42200;SDS011;27869;51.442;7.540;2024-02-26T11:25:43;12.30;;;4.70;;
42200;SDS011;27869;51.442;7.540;2024-02-26T11:28:11;12.77;;;4.35;;
42200;SDS011;27869;51.442;7.540;2024-02-26T11:30:42;13.73;;;4.28;;
42200;SDS011;27869;51.442;7.540;2024-02-26T11:33:13;12.23;;;4.80;;
42200;SDS011;27869;51.442;7.540;2024-02-26T11:35:41;12.85;;;4.45;;
42200;SDS011;27869;51.442;7.540;2024-02-26T11:38:08;11.35;;;3.80;;
42200;SDS011;27869;51.442;7.540;2024-02-26T11:40:43;12.00;;;4.53;;
42200;SDS011;27869;51.442;7.540;2024-02-26T11:43:10;13.85;;;4.40;;
42200;SDS011;27869;51.442;7.540;2024-02-26T11:45:49;12.50;;;4.45;;
42200;SDS011;27869;51.442;7.540;2024-02-26T11:48:22;11.23;;;3.92;;
42200;SDS011;27869;51.442;7.540;2024-02-26T11:50:50;12.80;;;4.15;;
42200;SDS011;27869;51.442;7.540;2024-02-26T11:53:24;11.15;;;3.47;;
42200;SDS011;27869;51.442;7.540;2024-02-26T11:56:19;11.25;;;3.40;;
42200;SDS011;27869;51.442;7.540;2024-02-26T11:58:48;10.77;;;3.25;;
42200;SDS011;27869;51.442;7.540;2024-02-26T12:04:21;10.77;;;3.10;;
42200;SDS011;27869;51.442;7.540;2024-02-26T12:06:51;12.10;;;3.83;;
42200;SDS011;27869;51.442;7.540;2024-02-26T12:09:32;11.00;;;3.53;;
42200;SDS011;27869;51.442;7.540;2024-02-26T12:12:01;9.85;;;3.08;;
42200;SDS011;27869;51.442;7.540;2024-02-26T12:14:29;11.73;;;3.80;;
42200;SDS011;27869;51.442;7.540;2024-02-26T12:16:56;12.70;;;3.20;;
42200;SDS011;27869;51.442;7.540;2024-02-26T12:19:24;10.68;;;3.42;;
42200;SDS011;27869;51.442;7.540;2024-02-26T12:21:53;9.27;;;2.88;;
42200;SDS011;27869;51.442;7.540;2024-02-26T12:24:20;9.85;;;3.03;;
42200;SDS011;27869;51.442;7.540;2024-02-26T12:26:47;9.10;;;2.72;;
42200;SDS011;27869;51.442;7.540;2024-02-26T12:29:14;9.13;;;3.03;;
42200;SDS011;27869;51.442;7.540;2024-02-26T12:31:42;9.80;;;2.70;;
42200;SDS011;27869;51.442;7.540;2024-02-26T12:34:09;10.52;;;2.88;;
42200;SDS011;27869;51.442;7.540;2024-02-26T12:36:38;10.25;;;2.83;;
42200;SDS011;27869;51.442;7.540;2024-02-26T12:39:05;11.55;;;3.55;;
42200;SDS011;27869;51.442;7.540;2024-02-26T12:41:34;9.65;;;3.15;;
42200;SDS011;27869;51.442;7.540;2024-02-26T12:44:01;11.48;;;3.40;;
42200;SDS011;27869;51.442;7.540;2024-02-26T12:46:28;12.27;;;3.13;;
42200;SDS011;27869;51.442;7.540;2024-02-26T12:48:56;11.05;;;3.55;;
42200;SDS011;27869;51.442;7.540;2024-02-26T12:51:24;10.93;;;3.70;;
42200;SDS011;27869;51.442;7.540;2024-02-26T12:53:54;11.35;;;3.55;;
42200;SDS011;27869;51.442;7.540;2024-02-26T12:56:22;11.23;;;4.25;;
42200;SDS011;27869;51.442;7.540;2024-02-26T12:58:50;12.23;;;4.00;;
42200;SDS011;27869;51.442;7.540;2024-02-26T13:01:19;12.68;;;4.03;;
42200;SDS011;27869;51.442;7.540;2024-02-26T13:03:48;11.88;;;4.18;;
42200;SDS011;27869;51.442;7.540;2024-02-26T13:06:15;13.52;;;4.05;;
42200;SDS011;27869;51.442;7.540;2024-02-26T13:08:43;12.88;;;4.60;;
42200;SDS011;27869;51.442;7.540;2024-02-26T13:11:11;12.25;;;4.18;;
42200;SDS011;27869;51.442;7.540;2024-02-26T13:13:38;13.93;;;4.40;;
42200;SDS011;27869;51.442;7.540;2024-02-26T13:16:05;11.18;;;4.35;;
42200;SDS011;27869;51.442;7.540;2024-02-26T13:18:33;11.70;;;3.60;;
42200;SDS011;27869;51.442;7.540;2024-02-26T13:21:11;11.82;;;4.22;;
42200;SDS011;27869;51.442;7.540;2024-02-26T13:23:40;11.80;;;4.00;;
42200;SDS011;27869;51.442;7.540;2024-02-26T13:26:08;11.10;;;3.88;;
42200;SDS011;27869;51.442;7.540;2024-02-26T13:28:39;12.98;;;4.25;;
42200;SDS011;27869;51.442;7.540;2024-02-26T13:31:06;13.05;;;4.00;;
42200;SDS011;27869;51.442;7.540;2024-02-26T13:33:34;12.52;;;4.32;;
42200;SDS011;27869;51.442;7.540;2024-02-26T13:36:01;12.13;;;4.18;;
42200;SDS011;27869;51.442;7.540;2024-02-26T13:38:32;11.50;;;3.72;;
42200;SDS011;27869;51.442;7.540;2024-02-26T13:40:59;11.02;;;3.33;;
42200;SDS011;27869;51.442;7.540;2024-02-26T13:43:26;11.52;;;3.97;;
42200;SDS011;27869;51.442;7.540;2024-02-26T13:45:54;10.48;;;4.20;;
42200;SDS011;27869;51.442;7.540;2024-02-26T13:48:21;11.00;;;3.75;;
42200;SDS011;27869;51.442;7.540;2024-02-26T13:50:48;10.25;;;3.38;;
42200;SDS011;27869;51.442;7.540;2024-02-26T13:53:15;10.50;;;3.42;;
42200;SDS011;27869;51.442;7.540;2024-02-26T13:55:42;11.25;;;3.70;;
42200;SDS011;27869;51.442;7.540;2024-02-26T13:58:10;10.48;;;3.60;;
42200;SDS011;27869;51.442;7.540;2024-02-26T14:00:39;11.77;;;3.88;;
42200;SDS011;27869;51.442;7.540;2024-02-26T14:03:08;12.27;;;4.10;;
42200;SDS011;27869;51.442;7.540;2024-02-26T14:05:34;11.95;;;4.13;;
42200;SDS011;27869;51.442;7.540;2024-02-26T14:08:01;10.25;;;3.47;;
42200;SDS011;27869;51.442;7.540;2024-02-26T14:10:28;10.70;;;3.47;;
42200;SDS011;27869;51.442;7.540;2024-02-26T14:12:57;11.25;;;3.83;;
42200;SDS011;27869;51.442;7.540;2024-02-26T14:15:24;11.70;;;3.90;;
42200;SDS011;27869;51.442;7.540;2024-02-26T14:17:51;12.73;;;3.80;;
42200;SDS011;27869;51.442;7.540;2024-02-26T14:20:22;12.27;;;4.45;;
42200;SDS011;27869;51.442;7.540;2024-02-26T14:22:49;13.25;;;3.88;;
42200;SDS011;27869;51.442;7.540;2024-02-26T14:25:18;13.85;;;4.50;;
42200;SDS011;27869;51.442;7.540;2024-02-26T14:27:45;13.10;;;4.32;;
42200;SDS011;27869;51.442;7.540;2024-02-26T14:30:14;13.07;;;4.70;;
42200;SDS011;27869;51.442;7.540;2024-02-26T14:32:41;13.48;;;4.53;;
42200;SDS011;27869;51.442;7.540;2024-02-26T14:35:08;11.85;;;4.43;;
42200;SDS011;27869;51.442;7.540;2024-02-26T14:37:37;14.50;;;4.57;;
42200;SDS011;27869;51.442;7.540;2024-02-26T14:40:04;14.02;;;4.43;;
42200;SDS011;27869;51.442;7.540;2024-02-26T14:42:33;16.25;;;4.80;;
42200;SDS011;27869;51.442;7.540;2024-02-26T14:45:00;13.20;;;3.97;;
42200;SDS011;27869;51.442;7.540;2024-02-26T14:47:27;12.60;;;4.10;;
42200;SDS011;27869;51.442;7.540;2024-02-26T14:49:54;13.52;;;4.45;;
42200;SDS011;27869;51.442;7.540;2024-02-26T14:52:21;11.57;;;4.57;;
42200;SDS011;27869;51.442;7.540;2024-02-26T14:54:49;11.40;;;4.22;;